Date,TemperatureHighF,TemperatureAvgF,TemperatureLowF,DewpointHighF,DewpointAvgF,DewpointLowF,HumidityHigh,HumidityAvg,HumidityLow,PressureMaxIn,PressureMinIn,WindSpeedMaxMPH,WindSpeedAvgMPH,GustSpeedMaxMPH,PrecipitationSumIn
2013-3-2,25.3,23.1,20.5,17.5,16.3,14.2,78,75,71,29.03,29.00,10,4,10,0.00
2013-3-3,27.3,21.6,13.3,15.6,12.4,7.7,78,68,60,29.01,28.95,18,6,18,0.00
2013-3-4,34.3,27.6,11.1,18.1,13.5,5.6,78,56,48,29.10,29.01,8,1,8,0.00
2013-3-5,35.8,29.3,17.8,22.3,19.4,10.5,79,67,56,29.08,28.80,17,7,17,0.00
2013-3-6,39.6,31.0,24.1,27.0,23.7,18.6,80,74,61,29.17,28.83,9,3,9,0.00
2013-3-7,34.0,31.3,21.4,26.8,23.2,13.1,83,72,60,29.35,29.16,12,2,12,0.00
2013-3-8,45.7,33.5,18.1,28.7,21.7,11.8,79,63,49,29.45,29.35,7,1,7,0.00
2013-3-9,44.4,36.3,24.6,30.1,26.0,18.8,81,67,53,29.36,28.99,15,4,15,0.00
2013-3-10,58.8,51.7,37.2,44.0,37.7,29.0,72,59,51,28.99,28.77,17,5,17,0.00
2013-3-11,53.2,48.3,36.0,44.9,42.7,29.7,87,81,60,28.78,28.45,22,6,22,0.00
2013-3-12,37.6,33.1,28.0,29.7,25.8,22.1,81,74,65,28.87,28.66,14,5,14,0.00
2013-3-13,31.6,27.1,22.6,23.5,17.5,12.0,82,67,52,29.13,28.81,21,9,21,0.00
2013-3-14,39.6,29.5,18.3,21.4,16.2,10.7,74,59,41,29.21,29.04,15,4,15,0.00
2013-3-15,37.9,33.6,12.7,30.0,26.3,5.4,84,74,56,29.01,28.82,12,4,12,0.00
2013-3-16,32.2,28.1,23.5,27.9,21.8,16.2,84,77,68,28.99,28.73,11,4,11,0.00
2013-3-17,33.1,26.3,19.0,20.2,13.4,9.9,76,59,49,29.22,28.99,12,4,12,0.00
2013-3-18,32.9,28.2,19.2,29.2,22.4,10.8,86,79,69,29.12,28.51,20,7,20,0.00
2013-3-19,32.5,24.3,21.7,27.7,16.0,13.4,82,71,64,28.87,28.56,22,7,22,0.00
2013-3-20,29.3,23.7,15.6,16.7,12.5,7.6,71,62,54,28.89,28.84,16,7,16,0.00
2013-3-21,31.3,24.3,13.6,22.8,16.7,6.9,78,73,66,28.88,28.79,16,7,16,0.00
2013-3-22,38.1,30.2,23.5,22.4,18.5,14.5,72,62,52,28.99,28.87,15,6,15,0.00
2013-3-23,38.1,28.9,19.6,24.4,19.4,13.7,81,68,55,29.07,28.97,8,1,8,0.00
2013-3-24,36.5,30.5,20.5,24.7,21.2,14.8,79,69,52,28.99,28.63,22,6,22,0.00
2013-3-25,38.5,33.7,29.3,25.7,23.4,20.7,73,66,57,28.88,28.54,19,7,19,0.00
2013-3-26,42.1,35.7,30.6,29.6,26.6,23.6,78,70,57,29.08,28.90,15,6,15,0.00
2013-3-27,46.6,37.3,27.1,27.4,24.4,21.1,79,61,46,29.16,29.07,20,7,20,0.00
2013-3-28,50.9,39.5,27.7,28.4,24.1,19.6,74,56,40,29.23,29.16,14,5,14,0.00
2013-3-29,52.2,39.9,25.3,26.2,21.8,16.2,69,50,33,29.25,29.16,9,2,9,0.00
2013-3-30,57.2,40.9,23.2,28.0,22.3,14.3,72,50,29,29.19,28.90,14,3,14,0.00
2013-3-31,57.6,48.0,37.9,40.0,34.2,25.7,77,60,43,28.90,28.60,18,5,18,0.00
2013-4-1,38.3,30.6,24.6,27.8,14.7,11.4,75,52,40,29.06,28.67,21,9,21,0.00
2013-4-2,39.0,31.0,20.5,16.8,14.1,10.0,74,51,37,29.20,29.05,19,7,19,0.00
2013-4-3,41.7,31.6,20.1,16.5,13.0,8.9,66,48,35,29.38,29.20,16,4,16,0.00
2013-4-4,56.5,41.9,24.1,24.5,18.6,11.2,61,41,27,29.31,28.92,16,5,16,0.00
2013-4-5,46.8,43.1,32.2,26.2,19.5,15.6,69,39,35,29.17,28.92,13,2,13,0.00
2013-4-6,49.3,41.1,28.2,25.2,21.3,15.1,67,46,36,29.21,28.75,19,7,19,0.00
2013-4-7,55.0,48.0,35.8,43.3,34.8,24.5,70,60,42,29.00,28.60,21,8,21,0.00
2013-4-8,62.8,45.2,32.7,52.3,37.5,26.0,84,75,57,29.01,28.68,18,6,18,0.00
2013-4-9,50.9,44.5,39.4,43.0,38.8,34.9,87,81,68,29.07,28.87,15,4,15,0.00
2013-4-10,44.4,40.3,36.5,40.9,36.5,32.7,88,86,84,29.03,28.77,19,4,19,0.00
2013-4-11,37.2,35.8,34.7,33.7,31.9,30.8,87,86,84,28.95,28.62,22,7,22,0.00
2013-4-12,41.5,37.4,33.3,36.8,32.1,29.8,87,81,70,28.73,28.51,14,3,14,0.00
2013-4-13,42.1,37.5,34.3,33.9,28.2,25.3,84,69,58,28.95,28.74,17,6,17,0.00
2013-4-14,48.7,40.2,30.0,36.7,30.5,22.7,76,69,59,29.08,28.91,16,3,16,0.00
2013-4-15,67.8,55.8,38.1,52.0,43.9,31.0,80,65,54,28.93,28.86,20,7,20,0.00
2013-4-16,60.1,52.5,45.9,50.7,40.2,32.5,85,65,42,29.15,28.86,17,5,17,0.00
2013-4-17,61.0,52.4,41.9,38.8,35.4,29.3,84,53,41,29.31,29.02,18,6,18,0.00
2013-4-18,77.2,59.9,43.3,64.5,53.2,38.8,87,79,60,28.99,28.55,38,7,38,0.00
2013-4-19,57.0,42.6,34.3,53.3,34.4,26.6,88,73,60,28.71,28.33,29,8,29,0.00
2013-4-20,38.8,34.0,27.0,26.4,19.4,15.3,79,55,49,29.40,28.73,21,8,21,0.00
2013-4-21,50.5,40.5,21.7,29.2,24.6,15.6,80,55,41,29.58,29.41,14,4,14,0.00
2013-4-22,63.5,50.1,31.3,34.5,29.9,19.0,78,49,28,29.42,29.17,11,4,11,0.00
2013-4-23,69.3,57.2,41.0,48.9,40.1,29.7,83,55,41,29.16,28.80,20,6,20,0.00
2013-4-24,51.6,37.0,33.4,46.6,31.8,25.3,86,82,64,29.09,28.74,15,5,15,0.00
2013-4-25,51.4,42.1,31.8,39.6,30.8,23.2,80,65,45,29.30,29.06,17,6,17,0.00
2013-4-26,60.4,48.1,28.0,36.8,31.3,3.6,78,54,40,29.42,29.30,17,5,17,0.00
2013-4-27,70.0,59.4,37.8,41.4,37.8,30.5,77,48,31,29.33,29.10,15,4,15,0.00
2013-4-28,58.1,53.2,49.1,49.0,43.3,32.1,86,70,52,29.09,28.82,13,4,13,0.00
2013-4-29,72.7,61.1,51.6,54.5,50.9,48.0,88,71,50,28.93,28.82,9,2,9,0.00
2013-4-30,72.0,67.0,52.7,55.9,53.8,47.8,85,63,56,29.06,28.92,18,6,18,0.00
2013-5-1,81.3,70.2,53.1,58.4,53.8,47.6,83,58,42,29.22,29.06,14,4,14,0.00
2013-5-2,79.3,68.9,54.3,57.0,50.4,44.1,72,53,40,29.24,29.12,19,5,19,0.00
2013-5-3,78.4,70.0,56.3,55.7,46.3,37.3,55,44,28,29.12,29.05,19,6,19,0.00
2013-5-4,71.4,65.6,54.0,46.9,42.9,35.9,65,45,33,29.12,29.05,17,7,17,0.00
2013-5-5,72.7,66.1,50.7,45.8,40.0,32.9,66,41,25,29.10,29.02,15,6,15,0.00
2013-5-6,76.6,65.1,49.3,50.7,43.1,35.1,60,46,37,29.06,28.97,14,5,14,0.00
2013-5-7,77.9,68.1,51.6,53.1,46.9,35.2,58,47,37,29.06,28.98,19,4,19,0.00
2013-5-8,80.4,68.5,49.8,53.2,47.0,41.7,76,48,34,29.02,28.93,9,2,9,0.00
2013-5-9,82.2,67.3,48.9,53.2,47.9,41.2,80,54,36,28.97,28.88,7,1,7,0.00
2013-5-10,64.9,48.7,40.5,58.5,41.4,35.4,85,76,55,28.90,28.75,11,5,11,0.00
2013-5-11,64.6,51.1,37.6,46.5,40.7,29.3,86,69,45,28.86,28.70,23,6,23,0.00
2013-5-12,47.5,41.8,32.2,30.1,27.5,20.9,77,57,48,29.05,28.84,22,10,22,0.00
2013-5-13,65.7,45.8,27.7,31.8,25.8,20.0,74,48,28,29.14,29.05,14,4,14,0.00
2013-5-14,78.1,59.8,-22.0,53.1,39.9,26.2,64,48,38,29.07,28.74,20,4,20,0.00
2013-5-15,84.0,72.9,53.4,56.5,50.9,43.2,81,49,31,28.80,28.58,21,7,21,0.00
2013-5-16,86.0,69.9,47.1,50.8,46.0,36.5,69,45,29,29.02,28.79,13,3,13,0.00
2013-5-17,75.9,63.3,47.1,47.5,42.6,35.0,66,48,36,29.14,29.03,12,4,12,0.00
2013-5-18,84.0,69.1,54.3,51.3,45.3,39.8,60,44,31,29.14,29.02,13,5,13,0.00
2013-5-19,91.9,79.6,55.0,64.2,57.6,42.2,66,48,38,29.04,28.90,15,3,15,0.00
2013-5-20,94.5,78.3,63.7,69.3,63.1,56.1,81,62,39,28.93,28.78,23,5,23,0.00
2013-5-21,91.8,78.9,68.9,65.4,61.6,57.9,77,57,40,28.82,28.74,21,5,21,0.00
2013-5-22,82.0,71.4,62.8,63.1,60.1,56.1,80,68,48,28.75,28.63,25,6,25,0.00
2013-5-23,61.3,50.8,41.7,55.9,46.0,36.6,87,84,80,29.12,28.70,16,2,16,0.00
2013-5-24,62.2,48.5,37.4,38.4,33.9,30.2,85,58,41,29.33,29.13,14,4,14,0.00
2013-5-25,66.2,58.5,34.9,40.2,37.1,29.0,80,46,37,29.37,29.26,11,2,11,0.00
2013-5-26,71.1,60.2,35.2,40.6,36.8,28.4,78,44,31,29.33,29.21,10,1,10,0.00
2013-5-27,64.2,55.2,43.7,45.7,40.3,31.3,85,59,38,29.25,29.00,15,5,15,0.00
2013-5-28,73.2,60.8,50.4,68.1,56.3,46.0,88,85,79,28.99,28.81,11,2,11,0.00
2013-5-29,84.6,73.7,63.3,67.1,62.5,57.0,84,69,50,28.99,28.76,15,4,15,0.00
2013-5-30,89.8,78.2,65.7,71.1,65.1,58.0,83,65,51,29.05,28.96,18,4,18,0.00
2013-5-31,84.0,75.4,67.3,67.6,64.8,61.6,85,70,56,29.00,28.82,20,6,20,0.00
2013-6-1,81.9,72.2,63.0,65.4,61.7,58.1,88,70,55,28.85,28.69,21,5,21,0.00
2013-6-2,69.6,65.6,62.1,59.9,56.6,54.6,83,73,61,28.81,28.66,21,6,21,0.00
2013-6-3,74.7,56.4,39.9,44.0,39.1,33.9,79,56,36,29.07,28.99,8,2,8,0.00
2013-6-4,77.4,60.8,43.9,47.2,42.0,33.9,80,54,37,29.18,29.08,1,0,1,0.00
2013-6-5,74.3,62.4,49.3,45.7,40.2,32.5,58,47,37,29.17,29.00,9,3,9,0.00
2013-6-6,67.3,60.9,55.0,51.5,47.0,40.2,72,60,56,29.00,28.86,12,4,12,0.00
2013-6-7,65.1,55.7,49.6,52.5,48.0,44.5,84,75,63,28.91,28.86,12,1,12,0.00
2013-6-8,79.5,66.0,54.7,54.8,51.0,47.3,78,60,41,29.06,28.90,9,0,9,0.00
2013-6-9,76.6,70.0,55.9,57.7,53.9,48.7,79,57,47,29.11,28.95,17,6,17,0.00
2013-6-10,77.0,66.4,59.7,66.1,60.2,49.6,87,81,59,28.95,28.73,8,1,8,0.00
2013-6-11,83.5,71.1,61.9,63.5,61.1,58.3,89,73,52,28.89,28.77,7,2,7,0.00
2013-6-12,75.7,69.2,59.5,64.5,61.1,54.1,85,76,69,28.92,28.66,8,1,8,0.00
2013-6-13,77.4,69.6,60.6,61.1,56.4,53.8,88,65,46,28.92,28.59,15,3,15,0.00
2013-6-14,81.5,68.3,56.3,55.1,52.1,46.8,80,58,37,29.08,28.93,12,1,12,0.00
2013-6-15,81.9,71.6,54.7,61.0,57.7,48.3,83,63,47,29.08,28.92,9,1,9,0.00
2013-6-16,87.1,75.1,63.1,64.7,60.7,50.9,87,63,37,28.90,28.77,12,4,12,0.00
2013-6-17,88.2,75.7,56.1,62.6,57.9,48.8,79,56,38,28.93,28.83,10,2,10,0.00
2013-6-18,73.8,65.2,52.7,53.8,48.7,38.3,84,58,37,29.07,28.90,11,4,11,0.00
2013-6-19,88.2,68.4,47.1,56.0,47.7,36.9,73,50,33,29.16,29.07,9,1,9,0.00
2013-6-20,94.1,74.1,52.3,60.3,54.0,45.0,78,52,32,29.21,29.13,8,1,8,0.00
2013-6-21,87.6,76.3,57.0,66.8,59.1,48.0,75,57,44,29.20,29.06,8,2,8,0.00
2013-6-22,91.8,82.1,69.1,72.6,67.2,55.6,75,61,51,29.09,28.99,9,2,9,0.00
2013-6-23,97.2,85.6,68.2,70.0,67.3,62.8,84,56,40,29.06,28.96,13,3,13,0.00
2013-6-24,93.9,81.0,67.6,70.3,66.3,60.7,80,62,45,29.07,28.92,14,2,14,0.00
2013-6-25,85.8,74.2,66.4,70.4,65.3,60.2,86,74,60,28.98,28.83,8,1,8,0.00
2013-6-26,93.9,78.4,63.3,72.9,66.1,58.6,87,67,50,28.87,28.76,8,1,8,0.00
2013-6-27,88.5,75.0,65.5,71.4,66.3,60.3,86,75,55,28.77,28.66,17,1,17,0.00
2013-6-28,80.8,69.7,63.5,65.2,61.8,57.9,89,77,56,28.64,28.54,15,2,15,0.00
2013-6-29,77.0,70.0,62.2,61.4,59.3,54.9,87,70,56,28.74,28.56,13,2,13,0.00
2013-6-30,79.0,72.7,60.6,59.5,57.1,43.8,79,59,47,28.94,28.75,13,4,13,0.00
2013-7-1,68.2,63.0,56.8,55.7,51.4,42.0,83,66,52,29.07,28.94,13,2,13,0.00
2013-7-2,76.6,68.1,56.8,62.0,57.4,50.5,83,69,58,29.07,29.02,8,2,8,0.00
2013-7-3,87.4,74.8,59.5,68.5,62.7,54.0,85,68,48,29.10,29.03,12,2,12,0.00
2013-7-4,85.6,77.4,66.7,66.4,62.2,56.8,85,61,47,29.14,29.07,10,2,10,0.00
2013-7-5,90.1,80.0,66.6,66.9,63.0,56.8,85,58,41,29.12,29.04,10,1,10,0.00
2013-7-6,88.3,80.0,66.4,69.6,67.0,61.1,84,66,51,29.12,28.99,10,2,10,0.00
2013-7-7,89.4,76.0,68.9,69.9,65.9,62.7,86,73,49,29.02,28.95,4,1,4,0.00
2013-7-8,87.6,75.8,67.6,73.8,67.7,62.2,84,76,63,29.03,28.97,11,2,11,0.00
2013-7-9,93.4,81.5,68.4,73.1,69.4,63.8,88,68,50,28.99,28.88,10,2,10,0.00
2013-7-10,91.0,81.8,66.6,73.4,68.6,53.6,89,66,48,28.93,28.78,24,3,24,0.00
2013-7-11,82.0,71.6,58.8,57.9,54.8,52.0,80,57,43,29.06,28.95,16,2,16,0.00
2013-7-12,89.6,72.6,54.3,62.1,57.1,49.4,85,61,38,29.16,29.06,8,2,8,0.00
2013-7-13,90.7,75.5,61.2,62.1,58.0,53.5,80,58,40,29.21,29.14,8,2,8,0.00
2013-7-14,92.1,79.7,64.9,69.1,64.9,58.6,83,64,46,29.25,29.20,9,1,9,0.00
2013-7-15,97.2,84.1,69.1,76.3,71.3,63.3,84,67,50,29.30,29.22,12,1,12,0.00
2013-7-16,98.8,86.5,73.2,78.3,73.8,30.4,88,68,49,29.32,29.24,11,2,11,0.00
2013-7-17,97.3,86.9,72.1,77.2,73.1,66.3,84,65,50,29.29,29.15,8,2,8,0.00
2013-7-18,99.9,87.9,71.6,77.2,72.5,65.6,83,62,45,29.17,28.97,13,2,13,0.00
2013-7-19,95.4,86.0,75.4,74.2,71.5,63.6,81,63,48,28.96,28.72,22,6,22,0.00
2013-7-20,88.3,77.1,68.9,67.3,64.1,59.0,86,66,41,28.92,28.74,9,1,9,0.00
2013-7-21,90.0,76.6,60.6,65.0,59.4,51.6,82,56,44,29.01,28.92,6,1,6,0.00
2013-7-22,91.9,76.7,66.0,67.7,63.9,58.3,81,66,44,28.96,28.77,12,2,12,0.00
2013-7-23,83.5,72.4,60.1,71.8,63.6,48.4,86,75,53,28.88,28.68,12,3,12,0.00
2013-7-24,77.4,65.6,53.8,53.7,49.6,44.8,73,57,43,29.05,28.90,10,2,10,0.00
2013-7-25,92.1,70.1,48.6,59.6,52.0,42.6,82,55,33,29.11,29.04,8,1,8,0.00
2013-7-26,82.2,72.6,58.3,60.7,56.7,50.0,76,58,46,29.09,28.90,13,3,13,0.00
2013-7-27,77.4,69.1,55.2,64.3,60.3,48.4,81,74,61,28.91,28.74,11,3,11,0.00
2013-7-28,71.4,60.5,49.6,57.1,51.6,44.3,84,73,58,28.96,28.82,15,4,15,0.00
2013-7-29,77.4,58.9,54.7,57.5,51.5,48.7,83,77,51,29.17,28.95,11,2,11,0.00
2013-7-30,83.3,69.8,49.8,60.3,55.3,44.8,85,62,45,29.22,29.11,8,1,8,0.00
2013-7-31,75.7,67.5,64.0,64.1,60.7,55.6,86,79,68,29.11,28.90,6,2,6,0.00
2013-8-1,81.1,69.3,61.3,63.7,59.1,51.6,86,71,46,28.92,28.88,13,3,13,0.00
2013-8-2,76.3,65.4,53.1,61.0,56.2,47.6,85,73,56,28.93,28.84,13,3,13,0.00
2013-8-3,79.3,70.3,55.2,59.6,55.1,50.7,87,61,43,29.04,28.90,11,3,11,0.00
2013-8-4,74.3,66.8,53.8,54.7,52.2,47.9,82,60,49,29.16,29.05,12,3,12,0.00
2013-8-5,73.9,65.0,55.9,55.3,51.5,47.0,74,63,46,29.11,28.97,7,1,7,0.00
2013-8-6,78.4,68.2,61.7,65.4,60.2,54.1,85,76,62,28.97,28.89,12,2,12,0.00
2013-8-7,84.7,73.5,64.0,70.3,64.4,58.9,88,74,60,28.91,28.79,19,3,19,0.00
2013-8-8,78.4,71.1,63.1,65.0,59.8,57.1,85,69,53,29.01,28.91,12,2,12,0.00
2013-8-9,81.9,69.7,57.0,59.7,55.4,51.5,82,63,45,29.00,28.94,6,1,6,0.00
2013-8-10,80.2,72.7,58.6,60.5,57.0,52.9,83,59,45,29.14,29.00,8,1,8,0.00
2013-8-11,79.9,69.9,59.9,61.5,56.3,52.5,78,64,47,29.12,29.03,6,2,6,0.00
2013-8-12,71.4,66.2,62.8,64.8,60.1,56.4,86,81,73,29.06,28.86,7,1,7,0.00
2013-8-13,68.5,60.8,53.4,59.2,49.3,42.5,87,68,48,29.03,28.84,11,4,11,0.00
2013-8-14,74.5,58.6,47.1,49.8,46.2,41.1,82,66,44,29.16,29.05,5,1,5,0.00
2013-8-15,75.4,62.0,47.5,52.0,48.4,41.6,84,64,45,29.16,29.08,7,1,7,0.00
2013-8-16,79.9,71.9,51.4,54.9,53.0,46.4,83,54,42,29.18,29.11,6,0,6,0.00
2013-8-17,81.7,71.8,51.4,58.6,54.1,45.2,81,56,38,29.27,29.18,10,2,10,0.00
2013-8-18,85.6,73.8,53.4,62.6,57.3,47.5,83,59,40,29.22,29.10,8,1,8,0.00
2013-8-19,84.0,73.1,55.9,62.0,56.1,48.9,80,58,40,29.12,29.03,9,2,9,0.00
2013-8-20,88.5,75.8,57.9,65.6,60.8,51.4,82,62,44,29.14,29.06,12,2,12,0.00
2013-8-21,87.4,75.9,64.9,68.5,63.7,58.5,81,68,54,29.13,29.00,10,3,10,0.00
2013-8-22,84.6,77.2,68.2,67.0,64.7,62.2,83,66,55,29.05,28.93,10,3,10,0.00
2013-8-23,83.5,71.9,58.8,62.2,54.5,48.7,83,56,39,29.16,29.05,12,2,12,0.00
2013-8-24,87.1,77.5,54.7,62.3,58.4,48.6,82,54,39,29.31,29.20,9,2,9,0.00
2013-8-25,89.2,79.7,58.3,65.6,61.7,52.7,84,56,43,29.29,29.14,14,4,14,0.00
2013-8-26,89.4,83.7,67.6,71.5,67.7,58.1,78,59,54,29.15,28.98,12,4,12,0.00
2013-8-27,86.0,76.7,69.4,73.9,69.3,65.0,87,78,66,28.99,28.85,14,2,14,0.00
2013-8-28,84.9,76.9,69.4,71.0,69.5,63.6,88,79,61,29.00,28.80,17,2,17,0.00
2013-8-29,91.0,78.9,64.0,71.9,66.2,60.5,88,67,48,29.08,29.01,8,1,8,0.00
2013-8-30,88.3,82.2,65.8,69.4,67.5,60.8,84,62,51,29.00,28.75,16,3,16,0.00
2013-8-31,82.6,75.4,66.7,68.7,65.0,61.0,87,71,57,28.87,28.76,9,2,9,0.00
2013-9-1,83.1,73.9,66.0,70.0,65.3,59.9,84,75,64,28.85,28.72,7,1,7,0.00
2013-9-2,75.0,68.4,58.8,64.3,57.5,49.2,88,69,57,28.91,28.72,17,6,17,0.00
2013-9-3,74.5,65.6,55.9,55.2,51.9,48.4,79,63,49,29.01,28.90,12,4,12,0.00
2013-9-4,80.8,68.4,52.2,61.5,56.1,46.8,86,67,50,29.07,28.99,14,3,14,0.00
2013-9-5,70.2,61.6,51.4,57.7,47.5,44.0,81,62,44,29.24,29.06,12,2,12,0.00
2013-9-6,77.4,63.8,45.7,52.9,48.2,39.6,83,59,41,29.27,29.07,11,2,11,0.00
2013-9-7,81.7,71.3,58.6,67.9,60.4,45.9,81,69,56,29.06,28.89,12,2,12,0.00
2013-9-8,74.5,68.8,56.1,62.9,55.7,46.3,85,64,49,29.09,28.92,12,4,12,0.00
2013-9-9,76.1,65.3,53.2,67.2,58.3,46.5,85,78,71,29.06,28.89,8,2,8,0.00
2013-9-10,94.1,83.3,68.2,72.1,68.6,63.8,86,64,43,29.02,28.88,16,3,16,0.00
2013-9-11,93.4,79.7,68.5,73.1,67.6,62.0,83,68,51,29.04,28.91,26,3,26,0.00
2013-9-12,76.8,66.6,58.8,62.7,55.4,50.9,88,69,48,28.94,28.84,11,4,11,0.00
2013-9-13,57.9,54.3,49.6,45.1,42.0,36.9,76,64,54,29.10,28.95,13,4,13,0.00
2013-9-14,69.6,61.6,37.2,47.2,43.8,31.9,83,53,44,29.17,29.07,8,1,8,0.00
2013-9-15,64.2,58.4,49.3,51.2,48.9,40.9,82,71,61,29.10,29.05,8,1,8,0.00
2013-9-16,61.3,57.5,49.1,48.1,44.4,40.1,80,62,53,29.33,29.29,11,3,11,0.00
2013-9-17,68.4,61.3,37.2,51.3,46.0,32.2,84,58,49,29.38,29.21,9,3,9,0.00
2013-9-18,75.6,69.7,46.0,57.5,53.5,39.0,84,57,47,29.20,29.02,11,3,11,0.00
2013-9-19,83.1,76.7,58.3,67.6,64.9,52.5,86,67,59,29.03,28.90,10,4,10,0.00
2013-9-20,81.5,73.6,66.9,69.6,65.6,61.9,88,77,66,28.91,28.73,11,3,11,0.00
2013-9-21,66.9,61.7,55.2,61.8,50.3,45.0,87,67,52,28.84,28.68,15,6,15,0.00
2013-9-22,58.6,53.8,45.0,42.5,39.9,37.1,78,59,53,29.06,28.87,10,3,10,0.00
2013-9-23,62.4,51.5,38.8,45.0,40.7,33.7,85,68,51,29.18,29.06,7,1,7,0.00
2013-9-24,44.2,40.5,39.4,38.7,35.3,34.4,83,81,77,29.14,29.11,1,0,1,0.00
2013-9-25,70.9,56.4,44.8,51.5,45.1,39.6,87,69,43,29.00,28.95,11,2,11,0.00
2013-9-26,75.4,67.2,42.4,52.9,48.9,37.6,86,54,43,29.13,28.99,8,2,8,0.00
2013-9-27,74.5,56.5,45.3,53.3,46.2,39.9,84,70,47,29.21,29.13,5,0,8,0.00
2013-9-28,77.0,68.3,57.7,59.7,55.5,50.8,88,65,48,29.19,29.00,14,4,14,0.00
2013-9-29,62.1,60.0,57.6,57.0,54.1,50.0,87,81,72,29.00,28.95,8,2,8,0.00
2013-9-30,71.2,62.9,54.7,56.4,52.6,47.5,87,71,51,29.01,28.91,10,1,10,0.00
2013-10-1,73.2,62.7,50.0,61.4,55.5,44.7,88,78,64,29.00,28.91,14,3,14,0.00
2013-10-2,76.8,66.7,55.0,57.1,51.4,45.0,88,61,36,29.08,28.94,8,1,8,0.00
2013-10-3,78.6,69.7,54.7,65.0,60.1,45.4,83,72,63,29.05,28.91,10,2,10,0.00
2013-10-4,80.1,70.3,63.3,67.7,62.9,59.0,87,78,65,29.03,28.94,7,1,7,0.00
2013-10-5,73.2,67.7,63.5,65.8,62.4,59.4,89,83,76,29.04,28.85,11,2,11,0.00
2013-10-6,70.7,64.5,53.4,64.3,59.7,49.3,89,85,75,28.85,28.63,15,4,15,0.00
2013-10-7,57.9,50.6,43.5,49.4,43.8,38.0,87,78,61,29.09,28.67,16,4,16,0.00
2013-10-8,67.3,52.4,40.3,49.4,41.6,35.8,88,69,48,29.26,29.09,12,2,12,0.00
2013-10-9,70.5,55.2,41.4,53.8,44.0,36.5,86,68,48,29.31,29.19,11,1,11,0.00
2013-10-10,71.2,55.9,42.1,53.6,44.1,36.9,88,67,43,29.21,29.11,11,1,11,0.00
2013-10-11,72.1,54.6,38.5,49.6,41.7,32.9,85,64,42,29.14,29.06,9,1,9,0.00
2013-10-12,75.4,61.3,48.4,60.5,51.8,42.4,89,73,43,29.09,29.02,13,2,13,0.00
2013-10-13,66.4,57.9,44.2,54.7,44.7,35.4,84,64,39,29.33,29.06,13,3,15,0.00
2013-10-14,63.1,51.1,42.4,43.7,39.9,35.3,84,67,47,29.39,29.24,10,1,10,0.00
2013-10-15,64.6,53.5,41.4,56.2,47.7,36.1,88,81,69,29.26,28.81,14,3,14,0.00
2013-10-16,60.4,54.2,49.8,56.6,47.4,42.6,88,78,62,28.89,28.78,13,3,13,0.00
2013-10-17,52.9,49.2,44.6,46.9,44.1,40.2,86,83,78,28.88,28.72,18,3,18,0.00
2013-10-18,62.8,49.5,41.5,45.8,40.2,37.0,87,72,45,28.89,28.81,13,3,13,0.00
2013-10-19,49.3,43.7,39.7,40.8,37.4,33.6,84,79,68,28.87,28.71,16,2,16,0.00
2013-10-20,56.8,46.9,36.7,41.5,37.8,32.0,85,72,54,28.88,28.79,18,3,18,0.00
2013-10-21,55.2,48.9,39.0,46.4,39.6,30.4,79,70,63,28.83,28.77,16,5,16,0.00
2013-10-22,48.7,39.7,31.6,32.6,28.1,24.3,75,64,49,28.88,28.80,14,3,14,0.00
2013-10-23,45.0,37.4,30.9,32.6,27.4,24.5,84,68,46,28.90,28.78,13,3,13,0.00
2013-10-24,46.8,36.0,29.5,31.9,27.4,24.3,83,72,50,29.13,28.88,13,3,13,0.00
2013-10-25,45.7,36.8,29.8,34.2,27.7,24.8,85,70,54,29.28,29.05,14,3,14,0.00
2013-10-26,50.2,41.4,35.8,35.6,29.5,25.4,80,63,53,29.06,28.73,26,5,26,0.00
2013-10-27,51.4,39.6,29.7,35.1,29.6,24.3,83,68,52,29.03,28.94,11,2,11,0.00
2013-10-28,49.3,39.4,31.1,36.7,29.8,23.4,79,68,60,29.37,29.01,11,2,11,0.00
2013-10-29,49.3,41.3,37.2,33.7,30.3,27.6,72,65,53,29.40,29.20,8,2,8,0.00
2013-10-30,63.0,47.3,32.9,46.8,37.5,28.0,85,70,52,29.21,28.92,11,2,11,0.00
2013-10-31,60.1,57.3,50.9,56.6,53.6,45.6,89,87,82,28.94,28.15,24,6,24,0.00
2013-11-1,58.8,48.2,44.2,55.6,40.8,35.8,89,76,62,28.64,28.10,21,5,21,0.00
2013-11-2,45.0,41.5,32.5,40.5,36.5,27.8,86,82,75,29.07,28.62,14,2,14,0.00
2013-11-3,45.7,35.4,27.0,35.8,28.3,22.7,86,76,62,29.40,29.06,8,1,8,0.00
2013-11-4,48.4,39.3,31.6,32.2,28.6,25.9,81,67,45,29.43,29.26,18,5,18,0.00
2013-11-5,55.9,48.1,41.0,43.9,39.8,32.0,81,73,63,29.32,29.14,10,3,10,0.00
2013-11-6,53.4,50.0,40.5,48.8,43.2,34.6,86,78,63,29.14,28.75,21,7,21,0.00
2013-11-7,42.6,37.8,32.5,34.8,28.1,24.0,83,69,51,29.10,28.95,17,6,17,0.00
2013-11-8,43.2,34.4,28.2,28.9,24.7,21.8,82,68,50,29.24,29.07,10,2,10,0.00
2013-11-9,54.1,45.9,36.0,38.7,33.4,26.6,71,62,53,29.13,28.76,16,6,18,0.00
2013-11-10,46.0,40.1,32.4,33.5,28.0,23.1,72,62,54,29.23,28.87,20,6,20,0.00
2013-11-11,40.5,34.0,25.5,34.4,26.8,17.4,84,75,68,29.26,28.98,14,4,14,0.00
2013-11-12,31.8,25.6,20.8,18.7,15.5,12.2,76,65,53,29.48,29.26,18,5,18,0.00
2013-11-13,38.8,27.7,16.9,22.1,14.6,9.9,80,60,37,29.48,29.10,18,4,18,0.00
2013-11-14,49.6,38.3,29.5,27.9,20.4,14.8,56,49,42,29.11,28.93,20,6,20,0.00
2013-11-15,51.1,41.2,35.2,29.2,24.7,20.3,61,52,42,29.03,28.95,17,4,17,0.00
2013-11-16,54.5,44.7,34.9,48.9,37.3,25.4,82,75,62,29.06,28.76,18,4,18,0.00
2013-11-17,59.9,55.4,43.9,55.4,50.3,37.4,87,83,69,28.78,28.22,25,9,25,0.00
2013-11-18,44.4,37.8,32.4,38.0,27.7,20.8,78,67,62,29.08,28.44,24,8,24,0.00
2013-11-19,39.9,32.4,26.8,22.6,20.1,17.2,73,60,48,29.36,29.08,14,3,14,0.00
2013-11-20,44.6,35.8,25.3,32.3,24.4,19.4,83,64,43,29.39,29.19,16,4,16,0.00
2013-11-21,46.6,42.0,37.8,39.1,33.8,25.5,86,73,61,29.25,29.14,15,3,15,0.00
2013-11-22,43.3,36.9,25.0,40.0,31.9,19.1,88,82,72,29.32,29.10,17,3,17,0.00
2013-11-23,26.4,21.6,14.5,19.8,13.0,4.8,82,70,49,29.45,29.21,22,6,22,0.00
2013-11-24,23.5,16.3,11.1,9.4,6.8,4.1,75,66,52,29.52,29.33,17,4,17,0.00
2013-11-25,30.4,23.3,16.3,21.1,12.1,6.0,78,62,49,29.33,29.02,14,6,18,0.00
2013-11-26,31.8,29.1,26.2,24.6,23.0,19.6,82,78,74,29.05,28.88,14,3,14,0.00
2013-11-27,26.2,20.6,15.4,19.7,10.9,5.5,80,66,54,29.13,28.87,27,6,27,0.00
2013-11-28,26.8,20.2,12.7,18.6,12.1,5.3,78,71,62,29.36,29.13,9,1,9,0.00
2013-11-29,32.4,21.9,11.1,21.6,13.6,4.9,80,71,56,29.59,29.36,8,0,8,0.00
2013-11-30,42.4,32.5,23.5,27.0,22.4,16.8,76,67,54,29.49,29.05,15,4,15,0.00
2013-12-1,40.3,34.0,30.6,30.3,26.5,22.2,84,74,67,29.05,28.95,11,1,11,0.00
2013-12-2,37.8,31.3,26.4,26.3,22.3,17.4,83,70,52,28.96,28.85,8,0,8,0.00
2013-12-3,36.0,31.9,24.6,31.8,26.3,17.0,85,80,69,28.88,28.80,13,4,13,0.00
2013-12-4,52.9,44.2,36.1,48.8,39.7,32.0,87,84,79,28.86,28.59,16,4,16,0.00
2013-12-5,55.6,40.5,28.0,51.1,31.5,18.1,86,70,59,29.10,28.57,19,6,19,0.00
2013-12-6,28.0,23.3,17.2,18.7,13.5,8.5,69,66,62,29.34,29.07,12,5,12,0.00
2013-12-7,22.6,17.3,10.9,9.1,6.2,2.4,68,62,53,29.55,29.34,14,4,14,0.00
2013-12-8,26.4,17.4,9.7,21.9,9.5,1.8,83,71,59,29.52,28.93,14,3,14,0.00
2013-12-9,27.1,24.0,17.4,22.9,17.6,9.3,84,77,68,29.03,28.81,19,5,19,0.00
2013-12-10,19.6,15.5,8.1,12.6,6.2,0.9,77,67,48,29.11,28.88,20,5,20,0.00
2013-12-11,22.1,14.9,3.9,13.4,6.8,-3.9,76,70,62,29.37,29.10,14,4,14,0.00
2013-12-12,18.0,11.1,0.1,9.9,2.1,-7.4,76,67,49,29.37,29.10,15,4,15,0.00
2013-12-13,27.1,22.1,17.8,17.2,14.1,9.9,75,71,65,29.23,29.06,11,2,11,0.00
2013-12-14,19.2,17.2,15.1,14.1,11.1,7.1,81,77,65,29.22,28.75,17,5,17,0.00
2013-12-15,23.4,17.1,10.0,18.1,10.8,2.8,82,76,68,28.96,28.74,19,5,19,0.00
2013-12-16,22.8,12.8,3.6,11.0,4.3,-3.0,77,69,55,29.11,28.94,7,1,7,0.00
2013-12-17,27.1,20.3,12.7,19.6,14.5,6.5,82,78,72,28.95,28.81,14,2,14,0.00
2013-12-18,29.3,24.3,19.6,20.6,17.4,11.3,83,75,65,29.05,28.83,15,3,15,0.00
2013-12-19,38.8,31.0,23.5,30.1,23.2,13.9,82,73,65,28.95,28.80,13,2,13,0.00
2013-12-20,35.8,32.6,31.6,32.2,29.0,27.3,87,86,82,28.87,28.68,8,1,8,0.00
2013-12-21,32.7,31.3,30.7,29.3,27.9,27.1,88,87,86,28.82,28.62,9,1,9,0.00
2013-12-22,34.5,31.6,28.6,30.2,27.9,24.9,87,86,83,28.92,28.50,9,0,9,0.00
2013-12-23,28.8,25.1,18.0,25.1,19.5,9.5,86,79,69,29.24,28.92,13,3,13,0.00
2013-12-24,18.0,11.8,5.7,9.5,4.3,-0.9,77,71,64,29.46,29.22,14,4,14,0.00
2013-12-25,21.9,17.0,8.2,17.2,10.9,1.4,82,77,73,29.43,29.05,16,4,16,0.00
2013-12-26,25.7,23.0,21.4,20.3,16.6,12.1,84,76,67,29.21,28.96,17,4,17,0.00
2013-12-27,37.8,30.5,23.0,28.6,24.1,17.2,84,77,68,29.26,29.00,17,3,17,0.00
2013-12-28,46.0,37.9,31.3,32.9,28.9,24.6,78,70,59,29.06,28.85,14,4,14,0.00
2013-12-29,40.6,31.5,17.2,29.4,23.6,9.7,82,72,64,28.96,28.66,16,5,16,0.00
2013-12-30,18.3,16.1,12.6,9.7,5.7,1.6,73,63,57,29.20,28.96,21,3,21,0.00
2013-12-31,18.1,14.3,10.8,9.0,6.2,3.0,76,70,62,29.25,28.98,18,4,18,0.00
2014-1-1,13.6,10.7,8.6,7.2,3.3,0.2,78,72,64,29.32,29.17,11,3,11,0.00
2014-1-2,13.6,8.8,-0.8,7.2,2.3,-8.9,78,75,65,29.21,29.02,17,4,17,0.00